createdAt,value
2022-09-05T00:02:29.305Z,99172.38
2022-09-05T00:05:25.448Z,99174.34
2022-09-05T00:11:40.837Z,99182.56
2022-09-05T00:15:17.392Z,99173.88
2022-09-05T00:18:00.243Z,99177.31
2022-09-05T00:24:37.272Z,99171.38
2022-09-05T00:24:42.059Z,99186.97
2022-09-05T00:27:28.005Z,99189.09
2022-09-05T00:31:07.182Z,99188.78
2022-09-05T00:33:37.414Z,99191.81
2022-09-05T00:36:48.773Z,99129.41
2022-09-05T00:39:37.132Z,99187.50
2022-09-05T00:42:24.315Z,99181.22
2022-09-05T00:45:04.419Z,99185.03
2022-09-05T00:48:08.887Z,99196.69
2022-09-05T00:51:07.015Z,99192.47
2022-09-05T00:54:17.737Z,99190.81
2022-09-05T00:57:17.976Z,99188.88
2022-09-05T01:00:17.789Z,99192.16
2022-09-05T01:03:10.269Z,99183.97
2022-09-05T01:06:03.148Z,99185.81
2022-09-05T01:08:51.310Z,99188.75
2022-09-05T01:11:52.441Z,99184.28
2022-09-05T01:14:56.177Z,99193.69
2022-09-05T01:18:05.061Z,99201.00
2022-09-05T01:21:16.773Z,99195.81
2022-09-05T01:24:13.000Z,99195.56
2022-09-05T01:27:42.266Z,99198.75
2022-09-05T01:30:49.299Z,99196.22
2022-09-05T01:34:06.851Z,99203.66
2022-09-05T01:36:49.284Z,99195.44
2022-09-05T01:40:15.329Z,99200.28
2022-09-05T01:42:59.060Z,99200.72
2022-09-05T01:45:57.019Z,99203.19
2022-09-05T01:48:50.430Z,99192.66
2022-09-05T01:52:12.134Z,99190.28
2022-09-05T01:55:00.707Z,99187.53
2022-09-05T01:57:56.297Z,99190.56
2022-09-05T02:00:58.572Z,99184.38
2022-09-05T02:04:16.170Z,99190.72
2022-09-05T02:07:31.267Z,99178.63
2022-09-05T02:10:57.838Z,99181.34
2022-09-05T02:13:42.446Z,99179.75
2022-09-05T02:16:36.717Z,99182.31
2022-09-05T02:19:33.853Z,99174.81
2022-09-05T02:22:22.981Z,99176.22
2022-09-05T02:25:30.228Z,99179.75
2022-09-05T02:28:28.921Z,99178.28
2022-09-05T02:31:20.488Z,99170.72
2022-09-05T02:34:10.030Z,99166.13
2022-09-05T02:37:11.074Z,99148.03
2022-09-05T02:45:10.355Z,99154.75
2022-09-05T02:45:16.769Z,99163.34
2022-09-05T02:47:22.770Z,99171.69
2022-09-05T02:54:27.771Z,99170.06
2022-09-05T02:57:34.044Z,99161.22
2022-09-05T02:57:34.204Z,99177.13
2022-09-05T03:00:25.201Z,99176.13
2022-09-05T03:02:53.572Z,99177.13
2022-09-05T03:05:29.481Z,99178.84
2022-09-05T03:08:13.318Z,99177.22
2022-09-05T03:11:15.743Z,99178.09
2022-09-05T03:14:26.240Z,99176.78
2022-09-05T03:17:33.781Z,99173.53
2022-09-05T03:20:42.197Z,99173.38
2022-09-05T03:23:33.610Z,99169.41
2022-09-05T03:26:27.413Z,99179.13
2022-09-05T03:29:41.678Z,99188.97
2022-09-05T03:32:49.108Z,99178.28
2022-09-05T03:35:41.712Z,99190.63
2022-09-05T03:38:51.800Z,99187.41
2022-09-05T03:41:46.857Z,99195.13
2022-09-05T03:44:44.392Z,99197.97
2022-09-05T03:48:00.608Z,99193.19
2022-09-05T03:57:13.843Z,99191.19
2022-09-05T03:57:14.289Z,99185.66
2022-09-05T03:57:43.197Z,99183.69
2022-09-05T04:00:28.271Z,99195.16
2022-09-05T04:08:10.571Z,99199.28
2022-09-05T04:08:18.449Z,99208.97
2022-09-05T04:09:51.127Z,99205.19
2022-09-05T04:12:32.236Z,99212.75
2022-09-05T04:15:45.324Z,99204.72
2022-09-05T04:18:32.924Z,99208.97
2022-09-05T04:21:23.606Z,99213.91
2022-09-05T04:24:13.328Z,99208.78
2022-09-05T04:27:12.043Z,99211.41
2022-09-05T04:30:38.484Z,99212.59
2022-09-05T04:33:36.664Z,99218.38
2022-09-05T04:36:30.310Z,99224.09
2022-09-05T04:39:22.763Z,99231.75
2022-09-05T04:42:26.593Z,99230.81
2022-09-05T04:45:10.522Z,99227.56
2022-09-05T04:48:02.904Z,99240.59
2022-09-05T04:50:43.609Z,99235.88
2022-09-05T04:53:57.040Z,99234.75
2022-09-05T04:56:39.308Z,99241.28
2022-09-05T05:05:58.819Z,99242.44
2022-09-05T05:06:15.939Z,99249.50
2022-09-05T05:06:31.603Z,99258.97
2022-09-05T05:09:25.149Z,99244.81
2022-09-05T05:17:57.610Z,99249.81
2022-09-05T05:18:12.353Z,99259.81
2022-09-05T05:18:48.987Z,99253.00
2022-09-05T05:21:37.985Z,99262.81
2022-09-05T05:24:28.554Z,99272.91
2022-09-05T05:27:20.205Z,99265.56
2022-09-05T05:30:05.867Z,99263.16
2022-09-05T05:32:54.070Z,99261.00
2022-09-05T05:35:38.487Z,99262.81
2022-09-05T05:38:38.602Z,99261.88
2022-09-05T05:41:32.112Z,99259.06
2022-09-05T05:44:08.499Z,99248.56
2022-09-05T05:46:42.344Z,99247.56
2022-09-05T05:50:01.957Z,99255.94
2022-09-05T05:52:57.151Z,99257.44
2022-09-05T05:56:12.045Z,99255.63
2022-09-05T05:59:03.084Z,99257.13
2022-09-05T06:02:09.946Z,99253.66
2022-09-05T06:05:24.005Z,99254.81
2022-09-05T06:11:09.437Z,99251.84
2022-09-05T06:14:49.019Z,99249.88
2022-09-05T06:15:08.880Z,99257.44
2022-09-05T06:18:17.205Z,99250.38
2022-09-05T06:22:09.974Z,99249.88
2022-09-05T06:24:47.273Z,99246.09
2022-09-05T06:28:19.143Z,99251.84
2022-09-05T06:31:30.601Z,99252.00
2022-09-05T06:34:32.718Z,99257.28
2022-09-05T06:37:29.174Z,99248.06
2022-09-05T06:40:37.157Z,99244.44
2022-09-05T06:43:49.387Z,99247.91
2022-09-05T06:46:54.936Z,99227.88
2022-09-05T06:50:27.157Z,99242.13
2022-09-05T06:53:23.897Z,99242.28
2022-09-05T06:56:25.628Z,99239.31
2022-09-05T06:59:26.399Z,99235.69
2022-09-05T07:02:15.271Z,99232.75
2022-09-05T07:05:37.138Z,99229.56
2022-09-05T07:08:37.193Z,99228.34
2022-09-05T07:11:59.519Z,99230.34
2022-09-05T07:14:47.726Z,99231.63
2022-09-05T07:17:32.336Z,99219.94
2022-09-05T07:20:16.909Z,99226.06
2022-09-05T07:23:20.327Z,99221.78
2022-09-05T07:26:07.052Z,99227.56
2022-09-05T07:28:54.635Z,99216.03
2022-09-05T07:31:37.663Z,99220.97
2022-09-05T07:34:34.319Z,99220.59
2022-09-05T07:37:38.864Z,99222.22
2022-09-05T07:40:26.071Z,99231.16
2022-09-05T07:43:18.600Z,99223.56
2022-09-05T07:46:11.930Z,99237.88
2022-09-05T07:49:04.872Z,99238.03
2022-09-05T07:56:51.515Z,99235.22
2022-09-05T07:57:10.321Z,99235.34
2022-09-05T07:57:51.910Z,99235.03
2022-09-05T08:00:30.091Z,99233.88
2022-09-05T08:03:12.288Z,99230.59
2022-09-05T08:05:57.295Z,99224.34
2022-09-05T08:12:09.474Z,99221.00
2022-09-05T08:14:58.464Z,99220.63
2022-09-05T08:17:52.533Z,99214.72
2022-09-05T08:20:49.787Z,99212.06
2022-09-05T08:23:48.343Z,99202.59
2022-09-05T08:27:03.351Z,99196.63
2022-09-05T08:29:48.055Z,99201.31
2022-09-05T08:32:47.436Z,99204.72
2022-09-05T08:35:34.190Z,99196.56
2022-09-05T08:38:11.022Z,99196.03
2022-09-05T08:40:55.120Z,99199.16
2022-09-05T08:46:37.405Z,99199.22
2022-09-05T08:47:00.788Z,99191.97
2022-09-05T08:49:46.229Z,99186.09
2022-09-05T08:52:37.578Z,99181.31
2022-09-05T08:55:35.524Z,99176.50
2022-09-05T08:58:44.997Z,99184.09
2022-09-05T09:01:27.742Z,99176.75
2022-09-05T09:07:51.519Z,99176.41
2022-09-05T09:10:31.357Z,99172.03
2022-09-05T09:13:19.747Z,99163.56
2022-09-05T09:16:10.250Z,99163.88
2022-09-05T09:18:50.570Z,99169.94
2022-09-05T09:21:58.215Z,99161.66
2022-09-05T09:25:11.265Z,99163.53
2022-09-05T09:28:47.477Z,99150.34
2022-09-05T09:31:11.195Z,99147.97
2022-09-05T09:34:02.843Z,99154.09
2022-09-05T09:37:11.808Z,99154.66
2022-09-05T09:40:09.742Z,99143.75
2022-09-05T09:42:57.353Z,99140.38
2022-09-05T09:45:52.150Z,99143.34
2022-09-05T09:48:42.070Z,99135.34
2022-09-05T09:51:36.427Z,99135.25
2022-09-05T09:54:25.848Z,99122.91
2022-09-05T09:57:36.400Z,99120.03
2022-09-05T10:10:34.989Z,99124.50
2022-09-05T10:10:59.753Z,99115.81
2022-09-05T10:14:47.706Z,99103.91
2022-09-05T10:17:55.325Z,99106.03
2022-09-05T10:21:13.849Z,99100.88
2022-09-05T10:24:21.137Z,99099.44
2022-09-05T10:27:20.579Z,99097.47
2022-09-05T10:30:33.467Z,99090.75
2022-09-05T10:35:12.934Z,99086.63
2022-09-05T10:36:36.877Z,99076.88
2022-09-05T10:39:29.539Z,99080.22
2022-09-05T10:42:16.241Z,99074.41
2022-09-05T10:45:19.267Z,99071.72
2022-09-05T10:48:14.068Z,99067.44
2022-09-05T10:51:09.004Z,99068.22
2022-09-05T10:53:54.262Z,99061.63
2022-09-05T10:56:36.803Z,99058.09
2022-09-05T11:01:17.808Z,99048.78
2022-09-05T11:02:34.840Z,99042.72
2022-09-05T11:05:38.222Z,99048.41
2022-09-05T11:08:13.459Z,99043.84
2022-09-05T11:10:58.518Z,99037.94
2022-09-05T11:13:58.174Z,99038.63
2022-09-05T11:16:46.499Z,99035.59
2022-09-05T11:19:40.288Z,99028.78
2022-09-05T11:22:30.597Z,99034.88
2022-09-05T11:25:08.272Z,99025.56
2022-09-05T11:27:50.760Z,99028.00
2022-09-05T11:30:38.655Z,99020.75
2022-09-05T11:39:58.953Z,99019.53
2022-09-05T11:40:05.205Z,99012.69
2022-09-05T11:40:29.977Z,99010.25
2022-09-05T11:43:17.675Z,99013.53
2022-09-05T11:46:17.020Z,99009.84
2022-09-05T11:49:08.829Z,99001.78
2022-09-05T11:52:19.610Z,98997.69
2022-09-05T11:55:22.514Z,98993.19
2022-09-05T11:58:43.188Z,98985.63
2022-09-05T12:01:41.113Z,98982.53
2022-09-05T12:05:47.353Z,98951.19
2022-09-05T12:08:11.070Z,98981.94
2022-09-05T12:10:58.908Z,98973.69
2022-09-05T12:14:20.938Z,98980.13
2022-09-05T12:17:34.987Z,98977.09
2022-09-05T12:20:43.494Z,98974.66
2022-09-05T12:24:03.093Z,98966.38
2022-09-05T12:27:39.580Z,98967.63
2022-09-05T12:29:48.949Z,98966.34
2022-09-05T12:34:46.750Z,98957.44
2022-09-05T12:36:10.397Z,98946.44
2022-09-05T12:41:11.115Z,98951.72
2022-09-05T12:43:44.954Z,98944.47
2022-09-05T12:46:10.932Z,98947.88
2022-09-05T12:49:07.718Z,98932.84
2022-09-05T12:52:02.597Z,98930.56
2022-09-05T12:54:46.423Z,98933.31
2022-09-05T13:03:09.451Z,98922.41
2022-09-05T13:03:14.238Z,98915.63
2022-09-05T13:07:19.514Z,98912.84
2022-09-05T13:11:00.353Z,98895.88
2022-09-05T13:14:57.340Z,98902.16
2022-09-05T13:16:15.500Z,98893.66
2022-09-05T13:19:07.859Z,98894.06
2022-09-05T13:21:49.032Z,98883.66
2022-09-05T13:24:28.914Z,98885.97
2022-09-05T13:27:29.599Z,98881.94
2022-09-05T13:31:53.412Z,98888.59
2022-09-05T13:38:05.482Z,98883.59
2022-09-05T13:38:12.699Z,98881.25
2022-09-05T13:39:30.997Z,98881.72
2022-09-05T13:42:20.569Z,98878.53
2022-09-05T13:44:59.259Z,98865.31
2022-09-05T13:48:07.746Z,98869.69
2022-09-05T13:50:50.877Z,98866.94
2022-09-05T13:53:43.438Z,98857.81
2022-09-05T13:56:32.183Z,98851.44
2022-09-05T13:59:11.956Z,98850.72
2022-09-05T14:02:26.000Z,98853.81
2022-09-05T14:05:08.377Z,98844.38
2022-09-05T14:08:15.407Z,98827.28
2022-09-05T14:11:45.271Z,98848.50
2022-09-05T14:18:20.047Z,98833.41
2022-09-05T14:21:17.439Z,98822.78
2022-09-05T14:24:27.975Z,98814.84
2022-09-05T14:27:31.873Z,98822.13
2022-09-05T14:30:47.694Z,98810.22
2022-09-05T14:37:40.877Z,98806.81
2022-09-05T14:38:01.238Z,98808.00
2022-09-05T14:40:30.155Z,98806.19
2022-09-05T14:43:37.792Z,98810.09
2022-09-05T14:46:38.781Z,98799.66
2022-09-05T14:49:35.533Z,98800.81
2022-09-05T14:52:45.908Z,98792.56
2022-09-05T14:55:34.767Z,98796.28
2022-09-05T15:02:39.768Z,98786.13
2022-09-05T15:02:48.796Z,98803.22
2022-09-05T15:07:08.281Z,98792.72
2022-09-05T15:12:15.502Z,98787.72
2022-09-05T15:13:04.912Z,98780.69
2022-09-05T15:16:27.565Z,98780.72
2022-09-05T15:19:10.305Z,98781.53
2022-09-05T15:21:41.901Z,98776.41
2022-09-05T15:24:23.276Z,98776.47
2022-09-05T15:27:07.161Z,98770.84
2022-09-05T15:29:42.446Z,98763.97
2022-09-05T15:32:26.561Z,98764.41
2022-09-05T15:35:04.936Z,98763.53
2022-09-05T15:37:41.492Z,98764.34
2022-09-05T15:40:27.933Z,98771.78
2022-09-05T15:43:02.751Z,98767.91
2022-09-05T15:45:44.880Z,98761.34
2022-09-05T15:48:19.861Z,98764.84
2022-09-05T15:50:58.358Z,98764.84
2022-09-05T15:53:38.230Z,98756.41
2022-09-05T15:56:29.753Z,98752.66
2022-09-05T15:59:06.178Z,98752.28
2022-09-05T16:01:59.209Z,98758.13
2022-09-05T16:09:49.910Z,98755.47
2022-09-05T16:10:39.231Z,98756.66
2022-09-05T16:10:57.882Z,98746.09
2022-09-05T16:13:36.689Z,98760.25
2022-09-05T16:21:51.306Z,98744.53
2022-09-05T16:23:26.987Z,98746.56
2022-09-05T16:23:34.059Z,98748.00
2022-09-05T16:26:25.706Z,98749.16
2022-09-05T16:29:26.687Z,98757.91
2022-09-05T16:32:34.513Z,98756.31
2022-09-05T16:35:17.260Z,98756.41
2022-09-05T16:38:49.860Z,98756.84
2022-09-05T16:41:52.724Z,98750.41
2022-09-05T16:44:56.911Z,98750.91
2022-09-05T16:47:57.174Z,98753.34
2022-09-05T16:51:15.400Z,98746.06
2022-09-05T16:54:29.183Z,98755.00
2022-09-05T16:57:32.345Z,98759.06
2022-09-05T17:00:14.387Z,98753.78
2022-09-05T17:03:11.090Z,98761.47
2022-09-05T17:05:48.891Z,98752.97
2022-09-05T17:08:34.596Z,98748.53
2022-09-05T17:11:29.928Z,98753.38
2022-09-05T17:14:21.163Z,98754.97
2022-09-05T17:17:20.163Z,98757.78
2022-09-05T17:20:07.797Z,98753.31
2022-09-05T17:29:18.959Z,98752.44
2022-09-05T17:29:24.587Z,98754.06
2022-09-05T17:29:30.404Z,98758.06
2022-09-05T17:32:19.568Z,98749.03
2022-09-05T17:35:17.587Z,98751.34
2022-09-05T17:38:08.011Z,98749.38
2022-09-05T17:41:14.170Z,98762.22
2022-09-05T17:43:58.310Z,98757.84
2022-09-05T17:46:31.158Z,98756.53
2022-09-05T17:49:19.830Z,98739.78
2022-09-05T17:52:18.410Z,98759.72
2022-09-05T17:54:57.841Z,98754.91
2022-09-05T17:57:47.510Z,98761.84
2022-09-05T18:03:55.165Z,98769.31
2022-09-05T18:06:41.191Z,98765.22
2022-09-05T18:09:52.644Z,98784.34
2022-09-05T18:15:49.976Z,98787.09
2022-09-05T18:19:03.739Z,98793.66
2022-09-05T18:22:06.444Z,98792.34
2022-09-05T18:25:33.261Z,98808.31
2022-09-05T18:28:51.108Z,98808.44
2022-09-05T18:31:45.440Z,98817.63
2022-09-05T18:34:34.855Z,98814.75
2022-09-05T18:37:58.624Z,98824.28
2022-09-05T18:40:59.434Z,98828.91
2022-09-05T18:44:13.212Z,98822.00
2022-09-05T18:47:05.538Z,98827.47
2022-09-05T18:50:25.712Z,98831.19
2022-09-05T18:53:08.946Z,98833.88
2022-09-05T18:56:13.226Z,98837.88
2022-09-05T18:59:34.751Z,98805.69
2022-09-05T19:02:50.226Z,98837.16
2022-09-05T19:05:54.939Z,98837.34
2022-09-05T19:08:36.903Z,98841.78
2022-09-05T19:11:28.489Z,98845.50
2022-09-05T19:14:26.382Z,98848.03
2022-09-05T19:17:19.184Z,98846.97
2022-09-05T19:20:31.014Z,98844.03
2022-09-05T19:23:12.882Z,98837.50
2022-09-05T19:25:44.752Z,98842.22
2022-09-05T19:36:33.255Z,98836.31
2022-09-05T19:36:45.018Z,98844.78
2022-09-05T19:37:06.830Z,98840.13
2022-09-05T19:37:39.635Z,98836.78
2022-09-05T19:47:29.103Z,98838.75
2022-09-05T19:47:38.377Z,98829.81
2022-09-05T19:47:47.840Z,98833.22
2022-09-05T19:49:18.158Z,98833.25
2022-09-05T19:51:49.075Z,98832.97
2022-09-05T19:54:39.439Z,98841.06
2022-09-05T19:57:21.168Z,98837.53
2022-09-05T20:00:02.581Z,98830.97
2022-09-05T20:03:01.353Z,98838.78
2022-09-05T20:05:36.386Z,98825.56
2022-09-05T20:08:10.429Z,98831.53
2022-09-05T20:10:49.547Z,98831.69
2022-09-05T20:13:32.110Z,98828.00
2022-09-05T20:16:19.403Z,98811.28
2022-09-05T20:18:50.839Z,98829.28
2022-09-05T20:21:44.788Z,98835.25
2022-09-05T20:24:15.931Z,98842.63
2022-09-05T20:26:51.630Z,98849.69
2022-09-05T20:29:54.974Z,98846.25
2022-09-05T20:32:39.686Z,98858.09
2022-09-05T20:43:07.989Z,98849.75
2022-09-05T20:43:15.472Z,98847.22
2022-09-05T20:43:31.464Z,98843.50
2022-09-05T20:44:40.994Z,98840.31
2022-09-05T20:50:08.312Z,98845.75
2022-09-05T20:54:16.806Z,98850.59
2022-09-05T20:54:25.178Z,98839.88
2022-09-05T20:56:34.766Z,98855.00
2022-09-05T20:59:20.569Z,98858.97
2022-09-05T21:02:26.241Z,98869.03
2022-09-05T21:05:21.506Z,98867.03
2022-09-05T21:08:06.846Z,98859.81
2022-09-05T21:10:57.734Z,98844.00
2022-09-05T21:13:52.253Z,98862.69
2022-09-05T21:16:34.692Z,98859.44
2022-09-05T21:19:11.799Z,98855.09
2022-09-05T21:21:46.279Z,98860.25
2022-09-05T21:24:26.551Z,98865.84
2022-09-05T21:26:57.192Z,98873.06
2022-09-05T21:29:39.986Z,98875.75
2022-09-05T21:32:20.736Z,98870.88
2022-09-05T21:34:57.926Z,98875.16
2022-09-05T21:37:35.936Z,98875.84
2022-09-05T21:40:08.265Z,98880.91
2022-09-05T21:47:34.567Z,98872.25
2022-09-05T21:47:50.091Z,98892.22
2022-09-05T21:48:34.786Z,98897.56
2022-09-05T21:51:15.895Z,98898.41
2022-09-05T21:57:32.959Z,98901.09
2022-09-05T21:59:33.444Z,98893.88
2022-09-05T21:59:46.907Z,98895.47
2022-09-05T22:02:18.370Z,98902.16
2022-09-05T22:04:49.961Z,98895.06
2022-09-05T22:07:40.845Z,98898.00
2022-09-05T22:10:16.257Z,98898.84
2022-09-05T22:12:50.045Z,98906.53
2022-09-05T22:15:27.793Z,98897.38
2022-09-05T22:18:17.429Z,98908.13
2022-09-05T22:21:31.648Z,98911.84
2022-09-05T22:23:47.603Z,98913.38
2022-09-05T22:26:19.184Z,98902.88
2022-09-05T22:28:57.484Z,98906.06
2022-09-05T22:31:29.953Z,98909.78
2022-09-05T22:34:02.263Z,98916.97
2022-09-05T22:36:31.020Z,98923.84
2022-09-05T22:39:04.758Z,98920.72
2022-09-05T22:41:48.903Z,98916.28
2022-09-05T22:44:16.890Z,98917.91
2022-09-05T22:46:47.105Z,98911.06
2022-09-05T22:49:27.137Z,98909.06
2022-09-05T22:52:00.879Z,98908.63
2022-09-05T22:54:34.536Z,98906.53
2022-09-05T22:57:06.984Z,98903.97
2022-09-05T22:59:51.866Z,98897.84
2022-09-05T23:02:25.938Z,98891.59
2022-09-05T23:04:56.830Z,98894.59
2022-09-05T23:07:27.475Z,98902.06
2022-09-05T23:10:12.358Z,98900.19
2022-09-05T23:12:49.499Z,98893.53
2022-09-05T23:15:20.427Z,98900.75
2022-09-05T23:18:02.946Z,98889.88
2022-09-05T23:20:39.157Z,98896.84
2022-09-05T23:23:13.193Z,98895.13
2022-09-05T23:25:47.927Z,98899.69
2022-09-05T23:28:19.444Z,98905.88
2022-09-05T23:30:49.866Z,98892.56
2022-09-05T23:33:21.316Z,98905.31
2022-09-05T23:35:55.329Z,98891.38
2022-09-05T23:38:29.130Z,98893.72
2022-09-05T23:41:29.174Z,98900.28
2022-09-05T23:43:59.864Z,98906.19
2022-09-05T23:46:37.601Z,98905.66
2022-09-05T23:49:11.820Z,98899.56
2022-09-05T23:51:46.370Z,98897.13
2022-09-05T23:54:21.147Z,98902.38
2022-09-05T23:56:53.091Z,98908.19
2022-09-05T23:59:30.666Z,98906.19
